createdAt,value
2023-04-03T00:00:04.568Z,103270.75
2023-04-03T00:02:34.481Z,103274.41
2023-04-03T00:05:07.349Z,103267.38
2023-04-03T00:07:37.147Z,103280.84
2023-04-03T00:10:07.950Z,103269.38
2023-04-03T00:12:37.853Z,103268.59
2023-04-03T00:15:08.960Z,103275.34
2023-04-03T00:17:38.805Z,103275.81
2023-04-03T00:20:12.568Z,103281.03
2023-04-03T00:22:42.436Z,103280.84
2023-04-03T00:25:13.525Z,103284.06
2023-04-03T00:27:43.906Z,103279.47
2023-04-03T00:30:18.033Z,103289.59
2023-04-03T00:32:47.979Z,103286.81
2023-04-03T00:35:21.957Z,103283.13
2023-04-03T00:37:52.468Z,103290.63
2023-04-03T00:40:23.324Z,103293.69
2023-04-03T00:42:58.918Z,103298.88
2023-04-03T00:45:38.069Z,103289.25
2023-04-03T00:48:11.313Z,103293.38
2023-04-03T00:50:46.683Z,103293.84
2023-04-03T00:53:20.778Z,103297.97
2023-04-03T00:55:53.951Z,103302.09
2023-04-03T00:58:28.110Z,103298.41
2023-04-03T01:01:01.987Z,103300.69
2023-04-03T01:03:32.835Z,103297.78
2023-04-03T01:06:05.902Z,103297.44
2023-04-03T01:08:36.271Z,103303.88
2023-04-03T01:11:06.145Z,103301.88
2023-04-03T01:13:37.282Z,103298.22
2023-04-03T01:16:08.660Z,103304.94
2023-04-03T01:18:41.711Z,103300.34
2023-04-03T01:21:58.930Z,103296.03
2023-04-03T01:24:40.289Z,103285.94
2023-04-03T01:27:18.503Z,103292.66
2023-04-03T01:29:51.338Z,103297.69
2023-04-03T01:32:23.752Z,103290.19
2023-04-03T01:34:53.543Z,103295.06
2023-04-03T01:37:23.365Z,103294.28
2023-04-03T01:39:53.206Z,103304.56
2023-04-03T01:42:24.527Z,103310.00
2023-04-03T01:44:54.300Z,103306.50
2023-04-03T01:47:27.084Z,103306.34
2023-04-03T01:49:56.920Z,103302.69
2023-04-03T01:52:27.747Z,103313.66
2023-04-03T01:54:57.581Z,103309.81
2023-04-03T01:57:27.414Z,103315.78
2023-04-03T01:59:57.237Z,103313.97
2023-04-03T02:02:33.044Z,103318.81
2023-04-03T02:05:02.884Z,103321.09
2023-04-03T02:07:32.746Z,103316.66
2023-04-03T02:10:02.623Z,103327.06
2023-04-03T02:12:32.594Z,103327.78
2023-04-03T02:15:02.405Z,103327.66
2023-04-03T02:17:35.028Z,103331.16
2023-04-03T02:20:04.994Z,103325.78
2023-04-03T02:22:35.115Z,103337.72
2023-04-03T02:25:05.273Z,103334.97
2023-04-03T02:27:35.093Z,103335.38
2023-04-03T02:30:04.938Z,103337.97
2023-04-03T02:32:37.364Z,103346.53
2023-04-03T02:35:07.931Z,103344.69
2023-04-03T02:37:37.960Z,103344.53
2023-04-03T02:40:09.723Z,103344.38
2023-04-03T02:42:39.596Z,103345.88
2023-04-03T02:45:10.868Z,103344.97
2023-04-03T02:47:44.093Z,103345.72
2023-04-03T02:50:14.214Z,103349.84
2023-04-03T02:52:43.994Z,103346.16
2023-04-03T02:55:18.481Z,103341.56
2023-04-03T02:57:49.073Z,103342.00
2023-04-03T03:00:19.484Z,103343.34
2023-04-03T03:02:53.810Z,103351.56
2023-04-03T03:05:23.699Z,103358.28
2023-04-03T03:07:55.964Z,103356.25
2023-04-03T03:10:26.296Z,103357.00
2023-04-03T03:12:56.105Z,103362.97
2023-04-03T03:15:26.130Z,103363.88
2023-04-03T03:17:58.562Z,103364.06
2023-04-03T03:20:28.534Z,103360.69
2023-04-03T03:22:58.347Z,103364.06
2023-04-03T03:25:28.256Z,103369.41
2023-04-03T03:27:58.059Z,103357.19
2023-04-03T03:30:27.860Z,103359.59
2023-04-03T03:33:02.676Z,103357.91
2023-04-03T03:35:32.534Z,103358.09
2023-04-03T03:38:02.347Z,103360.50
2023-04-03T03:40:32.146Z,103359.47
2023-04-03T03:43:07.272Z,103356.34
2023-04-03T03:45:37.355Z,103361.22
2023-04-03T03:48:10.092Z,103370.34
2023-04-03T03:50:40.072Z,103377.63
2023-04-03T03:53:09.880Z,103379.06
2023-04-03T03:55:39.938Z,103385.25
2023-04-03T03:58:09.849Z,103387.19
2023-04-03T04:00:39.849Z,103389.28
2023-04-03T04:03:14.648Z,103385.84
2023-04-03T04:05:44.500Z,103385.50
2023-04-03T04:08:14.328Z,103379.22
2023-04-03T04:10:44.180Z,103381.31
2023-04-03T04:13:13.997Z,103374.09
2023-04-03T04:15:44.143Z,103377.47
2023-04-03T04:18:16.864Z,103380.44
2023-04-03T04:20:48.538Z,103376.75
2023-04-03T04:23:18.527Z,103381.94
2023-04-03T04:25:48.728Z,103380.44
2023-04-03T04:28:20.969Z,103383.03
2023-04-03T04:30:50.920Z,103381.38
2023-04-03T04:33:23.349Z,103394.19
2023-04-03T04:35:53.204Z,103391.59
2023-04-03T04:38:23.086Z,103400.28
2023-04-03T04:40:53.144Z,103408.84
2023-04-03T04:43:22.972Z,103402.69
2023-04-03T04:45:52.828Z,103407.56
2023-04-03T04:48:25.274Z,103404.81
2023-04-03T04:50:55.067Z,103410.91
2023-04-03T04:53:24.878Z,103411.81
2023-04-03T04:55:54.775Z,103407.56
2023-04-03T04:58:25.413Z,103412.75
2023-04-03T05:01:02.562Z,103416.09
2023-04-03T05:03:36.791Z,103423.53
2023-04-03T05:06:07.160Z,103431.13
2023-04-03T05:08:37.090Z,103418.75
2023-04-03T05:11:07.050Z,103418.75
2023-04-03T05:13:36.882Z,103410.97
2023-04-03T05:16:07.231Z,103411.16
2023-04-03T05:18:39.721Z,103417.06
2023-04-03T05:21:09.531Z,103426.53
2023-04-03T05:23:39.345Z,103416.69
2023-04-03T05:26:09.504Z,103426.81
2023-04-03T05:28:39.777Z,103423.06
2023-04-03T05:31:09.590Z,103425.25
2023-04-03T05:33:42.061Z,103423.19
2023-04-03T05:36:14.002Z,103426.63
2023-04-03T05:38:44.176Z,103440.19
2023-04-03T05:41:14.213Z,103431.16
2023-04-03T05:43:45.260Z,103440.88
2023-04-03T05:46:15.947Z,103438.16
2023-04-03T05:48:48.701Z,103435.09
2023-04-03T05:51:21.895Z,103439.03
2023-04-03T05:53:53.907Z,103435.16
2023-04-03T05:56:24.177Z,103448.00
2023-04-03T05:58:54.008Z,103443.56
2023-04-03T06:01:24.769Z,103452.06
2023-04-03T06:04:00.039Z,103453.97
2023-04-03T06:06:30.204Z,103455.91
2023-04-03T06:09:01.548Z,103452.66
2023-04-03T06:11:32.986Z,103452.06
2023-04-03T06:14:02.769Z,103457.09
2023-04-03T06:16:33.642Z,103464.47
2023-04-03T06:19:07.055Z,103457.78
2023-04-03T06:21:36.957Z,103461.16
2023-04-03T06:24:07.139Z,103459.66
2023-04-03T06:26:37.599Z,103455.97
2023-04-03T06:29:09.613Z,103458.56
2023-04-03T06:31:40.921Z,103461.16
2023-04-03T06:34:14.961Z,103461.47
2023-04-03T06:36:46.224Z,103461.84
2023-04-03T06:39:18.423Z,103469.34
2023-04-03T06:41:48.752Z,103467.22
2023-04-03T06:44:18.617Z,103467.06
2023-04-03T06:46:49.743Z,103477.94
2023-04-03T06:49:22.761Z,103479.81
2023-04-03T06:51:52.860Z,103483.22
2023-04-03T06:54:22.755Z,103474.66
2023-04-03T06:56:52.635Z,103483.72
2023-04-03T06:59:22.501Z,103480.66
2023-04-03T07:01:53.016Z,103486.03
2023-04-03T07:04:26.012Z,103480.06
2023-04-03T07:06:55.914Z,103497.53
2023-04-03T07:09:25.866Z,103487.41
2023-04-03T07:11:55.702Z,103492.13
2023-04-03T07:14:25.676Z,103501.03
2023-04-03T07:16:55.852Z,103507.75
2023-04-03T07:19:29.189Z,103503.16
2023-04-03T07:21:59.016Z,103514.06
2023-04-03T07:24:28.865Z,103509.41
2023-04-03T07:26:58.704Z,103517.81
2023-04-03T07:29:28.629Z,103511.34
2023-04-03T07:31:59.005Z,103529.00
2023-04-03T07:34:31.893Z,103521.75
2023-04-03T07:37:02.354Z,103526.78
2023-04-03T07:39:32.229Z,103525.34
2023-04-03T07:42:02.029Z,103526.56
2023-04-03T07:44:33.992Z,103524.19
2023-04-03T07:47:03.845Z,103530.06
2023-04-03T07:49:39.262Z,103528.78
2023-04-03T07:52:10.246Z,103539.75
2023-04-03T07:54:40.157Z,103542.28
2023-04-03T07:57:10.075Z,103535.78
2023-04-03T07:59:40.872Z,103534.03
2023-04-03T08:02:13.263Z,103530.66
2023-04-03T08:04:48.453Z,103530.88
2023-04-03T08:07:20.001Z,103541.59
2023-04-03T08:09:50.451Z,103545.03
2023-04-03T08:12:21.012Z,103542.19
2023-04-03T08:14:50.951Z,103529.34
2023-04-03T08:17:24.811Z,103531.25
2023-04-03T08:19:57.305Z,103534.16
2023-04-03T08:22:27.536Z,103529.19
2023-04-03T08:24:59.255Z,103526.72
2023-04-03T08:27:32.492Z,103522.91
2023-04-03T08:30:02.650Z,103525.44
2023-04-03T08:32:35.747Z,103518.50
2023-04-03T08:35:09.121Z,103516.19
2023-04-03T08:37:40.217Z,103523.00
2023-04-03T08:40:17.207Z,103519.72
2023-04-03T08:43:03.241Z,103514.09
2023-04-03T08:45:51.132Z,103514.72
2023-04-03T08:48:25.675Z,103513.41
2023-04-03T08:51:03.639Z,103512.09
2023-04-03T08:53:36.611Z,103508.16
2023-04-03T08:56:10.747Z,103512.25
2023-04-03T08:58:47.743Z,103500.03
2023-04-03T09:01:23.911Z,103508.78
2023-04-03T09:03:55.473Z,103502.88
2023-04-03T09:06:32.651Z,103507.84
2023-04-03T09:09:18.069Z,103499.84
2023-04-03T09:11:57.235Z,103496.66
2023-04-03T09:14:35.768Z,103498.72
2023-04-03T09:17:08.834Z,103501.78
2023-04-03T09:19:45.961Z,103502.16
2023-04-03T09:22:22.880Z,103504.34
2023-04-03T09:25:01.256Z,103502.47
2023-04-03T09:27:32.005Z,103503.47
2023-04-03T09:30:04.481Z,103500.09
2023-04-03T09:32:36.146Z,103498.44
2023-04-03T09:35:20.723Z,103506.09
2023-04-03T09:38:02.111Z,103496.25
2023-04-03T09:40:36.594Z,103500.63
2023-04-03T09:43:24.378Z,103501.38
2023-04-03T09:45:55.824Z,103502.94
2023-04-03T09:48:26.683Z,103498.25
2023-04-03T09:51:00.582Z,103495.06
2023-04-03T09:53:36.606Z,103494.03
2023-04-03T09:56:09.671Z,103494.47
2023-04-03T09:58:50.471Z,103492.72
2023-04-03T10:01:29.115Z,103494.78
2023-04-03T10:04:12.702Z,103493.03
2023-04-03T10:06:48.124Z,103494.91
2023-04-03T10:09:25.871Z,103492.31
2023-04-03T10:12:05.886Z,103487.41
2023-04-03T10:14:36.746Z,103480.38
2023-04-03T10:17:19.464Z,103486.81
2023-04-03T10:19:54.009Z,103480.94
2023-04-03T10:22:33.771Z,103476.25
2023-04-03T10:25:18.804Z,103479.22
2023-04-03T10:28:01.116Z,103474.16
2023-04-03T10:30:40.772Z,103474.66
2023-04-03T10:33:23.323Z,103477.38
2023-04-03T10:36:05.950Z,103473.41
2023-04-03T10:38:47.325Z,103474.06
2023-04-03T10:41:25.327Z,103475.41
2023-04-03T10:44:12.222Z,103471.31
2023-04-03T10:46:45.681Z,103467.25
2023-04-03T10:49:28.524Z,103464.38
2023-04-03T10:52:06.240Z,103465.56
2023-04-03T10:54:42.085Z,103449.31
2023-04-03T10:57:16.079Z,103454.56
2023-04-03T10:59:50.363Z,103454.31
2023-04-03T11:02:30.820Z,103451.31
2023-04-03T11:05:06.323Z,103451.97
2023-04-03T11:07:42.337Z,103452.41
2023-04-03T11:10:18.776Z,103439.69
2023-04-03T11:12:56.918Z,103434.50
2023-04-03T11:15:28.516Z,103427.16
2023-04-03T11:18:03.252Z,103435.81
2023-04-03T11:20:35.747Z,103434.75
2023-04-03T11:23:09.883Z,103423.28
2023-04-03T11:25:44.428Z,103433.88
2023-04-03T11:28:19.135Z,103431.25
2023-04-03T11:30:55.323Z,103419.03
2023-04-03T11:33:36.642Z,103407.84
2023-04-03T11:36:24.932Z,103411.53
2023-04-03T11:39:00.551Z,103395.25
2023-04-03T11:41:32.968Z,103392.34
2023-04-03T11:44:09.197Z,103394.28
2023-04-03T11:46:57.263Z,103387.53
2023-04-03T11:49:55.302Z,103388.00
2023-04-03T11:52:54.878Z,103388.06
2023-04-03T11:55:55.858Z,103388.59
2023-04-03T11:58:27.526Z,103383.09
2023-04-03T12:01:13.513Z,103388.25
2023-04-03T12:04:16.159Z,103390.31
2023-04-03T12:07:12.211Z,103377.16
2023-04-03T12:10:31.731Z,103386.41
2023-04-03T12:13:05.617Z,103388.84
2023-04-03T12:15:55.000Z,103391.47
2023-04-03T12:19:04.821Z,103383.47
2023-04-03T12:22:10.572Z,103387.44
2023-04-03T12:24:43.656Z,103385.66
2023-04-03T12:27:28.563Z,103380.41
2023-04-03T12:30:04.351Z,103358.19
2023-04-03T12:32:58.918Z,103375.47
2023-04-03T12:35:41.460Z,103372.50
2023-04-03T12:38:32.052Z,103359.91
2023-04-03T12:41:08.782Z,103369.88
2023-04-03T12:43:51.670Z,103364.28
2023-04-03T12:46:23.445Z,103363.28
2023-04-03T12:48:56.319Z,103354.34
2023-04-03T12:51:38.180Z,103360.06
2023-04-03T12:54:18.730Z,103355.88
2023-04-03T12:56:48.520Z,103351.13
2023-04-03T12:59:21.355Z,103345.44
2023-04-03T13:02:00.382Z,103337.25
2023-04-03T13:04:32.244Z,103323.06
2023-04-03T13:07:05.328Z,103325.78
2023-04-03T13:09:35.880Z,103334.63
2023-04-03T13:12:13.315Z,103329.69
2023-04-03T13:14:43.998Z,103326.25
2023-04-03T13:17:17.685Z,103329.00
2023-04-03T13:19:48.737Z,103323.81
2023-04-03T13:22:31.428Z,103324.66
2023-04-03T13:25:04.265Z,103329.38
2023-04-03T13:27:35.082Z,103337.25
2023-04-03T13:30:09.378Z,103327.53
2023-04-03T13:32:40.138Z,103336.03
2023-04-03T13:35:32.562Z,103331.63
2023-04-03T13:38:09.181Z,103335.09
2023-04-03T13:40:52.186Z,103331.72
2023-04-03T13:43:25.187Z,103324.91
2023-04-03T13:46:19.912Z,103331.19
2023-04-03T13:48:52.297Z,103330.00
2023-04-03T13:51:25.131Z,103336.44
2023-04-03T13:54:00.153Z,103333.25
2023-04-03T13:56:37.130Z,103335.81
2023-04-03T13:59:25.882Z,103342.91
2023-04-03T14:02:01.592Z,103330.91
2023-04-03T14:04:33.955Z,103330.28
2023-04-03T14:07:03.854Z,103318.69
2023-04-03T14:09:36.270Z,103319.50
2023-04-03T14:12:17.935Z,103318.88
2023-04-03T14:14:54.452Z,103318.19
2023-04-03T14:17:28.996Z,103317.25
2023-04-03T14:19:59.914Z,103307.72
2023-04-03T14:22:32.729Z,103306.25
2023-04-03T14:25:06.036Z,103310.97
2023-04-03T14:27:42.366Z,103293.28
2023-04-03T14:30:17.971Z,103309.25
2023-04-03T14:32:48.166Z,103298.13
2023-04-03T14:35:18.782Z,103296.66
2023-04-03T14:37:49.743Z,103293.81
2023-04-03T14:40:25.315Z,103294.03
2023-04-03T14:42:56.627Z,103297.34
2023-04-03T14:45:27.587Z,103295.63
2023-04-03T14:47:58.839Z,103287.66
2023-04-03T14:50:31.079Z,103286.84
2023-04-03T14:53:02.973Z,103293.28
2023-04-03T14:55:36.423Z,103280.53
2023-04-03T14:58:06.252Z,103289.47
2023-04-03T15:00:36.197Z,103286.31
2023-04-03T15:03:06.196Z,103283.53
2023-04-03T15:05:36.180Z,103277.41
2023-04-03T15:08:08.669Z,103274.63
2023-04-03T15:10:41.212Z,103268.47
2023-04-03T15:13:15.691Z,103268.63
2023-04-03T15:15:46.198Z,103268.38
2023-04-03T15:18:21.920Z,103272.44
2023-04-03T15:20:52.070Z,103266.94
2023-04-03T15:23:26.922Z,103265.91
2023-04-03T15:25:59.908Z,103256.88
2023-04-03T15:28:34.078Z,103261.50
2023-04-03T15:31:05.825Z,103250.38
2023-04-03T15:33:36.659Z,103253.78
2023-04-03T15:36:17.153Z,103253.00
2023-04-03T15:38:57.720Z,103248.78
2023-04-03T15:41:30.171Z,103243.06
2023-04-03T15:44:00.663Z,103261.00
2023-04-03T15:46:30.524Z,103240.47
2023-04-03T15:49:00.497Z,103240.22
2023-04-03T15:51:30.340Z,103236.13
2023-04-03T15:54:00.149Z,103236.13
2023-04-03T15:56:32.551Z,103242.94
2023-04-03T15:59:02.438Z,103237.84
2023-04-03T16:01:32.382Z,103231.69
2023-04-03T16:04:03.960Z,103233.78
2023-04-03T16:06:35.000Z,103244.69
2023-04-03T16:09:08.139Z,103235.50
2023-04-03T16:11:41.344Z,103234.34
2023-04-03T16:14:11.871Z,103237.88
2023-04-03T16:16:41.994Z,103240.50
2023-04-03T16:19:14.426Z,103237.09
2023-04-03T16:21:44.246Z,103251.41
2023-04-03T16:24:16.044Z,103241.94
2023-04-03T16:26:50.836Z,103240.00
2023-04-03T16:29:20.669Z,103243.25
2023-04-03T16:31:50.952Z,103247.75
2023-04-03T16:34:20.858Z,103240.66
2023-04-03T16:36:50.713Z,103247.09
2023-04-03T16:39:20.687Z,103252.34
2023-04-03T16:41:53.232Z,103240.16
2023-04-03T16:44:23.034Z,103246.69
2023-04-03T16:46:53.734Z,103243.03
2023-04-03T16:49:23.597Z,103249.97
2023-04-03T16:51:53.531Z,103245.22
2023-04-03T16:54:23.333Z,103250.88
2023-04-03T16:56:56.537Z,103249.97
2023-04-03T16:59:26.836Z,103246.78
2023-04-03T17:01:56.701Z,103252.69
2023-04-03T17:04:26.633Z,103249.66
2023-04-03T17:06:56.676Z,103246.00
2023-04-03T17:09:27.393Z,103250.03
2023-04-03T17:11:59.815Z,103245.47
2023-04-03T17:14:29.636Z,103244.16
2023-04-03T17:16:59.633Z,103247.25
2023-04-03T17:19:34.498Z,103254.72
2023-04-03T17:22:04.669Z,103246.47
2023-04-03T17:24:34.657Z,103252.22
2023-04-03T17:27:07.526Z,103251.69
2023-04-03T17:29:37.333Z,103247.75
2023-04-03T17:32:07.466Z,103261.31
2023-04-03T17:34:37.274Z,103251.91
2023-04-03T17:37:07.107Z,103247.75
2023-04-03T17:39:36.992Z,103257.91
2023-04-03T17:42:09.468Z,103257.22
2023-04-03T17:44:39.314Z,103258.25
2023-04-03T17:47:09.121Z,103252.59
2023-04-03T17:49:38.970Z,103261.72
2023-04-03T17:52:08.778Z,103247.31
2023-04-03T17:54:38.599Z,103264.56
2023-04-03T17:57:11.157Z,103261.94
2023-04-03T17:59:41.979Z,103254.88
2023-04-03T18:02:11.802Z,103250.31
2023-04-03T18:04:41.854Z,103260.59
2023-04-03T18:07:12.226Z,103264.81
2023-04-03T18:09:42.804Z,103256.66
2023-04-03T18:12:15.595Z,103257.94
2023-04-03T18:14:45.524Z,103248.63
2023-04-03T18:17:17.254Z,103256.50
2023-04-03T18:19:47.059Z,103260.13
2023-04-03T18:22:21.252Z,103256.16
2023-04-03T18:24:51.555Z,103251.44
2023-04-03T18:27:25.935Z,103255.47
2023-04-03T18:29:59.196Z,103248.28
2023-04-03T18:32:29.276Z,103248.00
2023-04-03T18:34:59.586Z,103249.53
2023-04-03T18:37:29.464Z,103244.94
2023-04-03T18:40:01.567Z,103248.94
2023-04-03T18:42:33.999Z,103248.03
2023-04-03T18:45:07.570Z,103247.75
2023-04-03T18:47:37.454Z,103247.31
2023-04-03T18:50:11.400Z,103247.22
2023-04-03T18:52:41.232Z,103255.16
2023-04-03T18:55:14.741Z,103258.84
2023-04-03T18:57:47.301Z,103252.56
2023-04-03T19:00:19.742Z,103253.34
2023-04-03T19:02:53.328Z,103256.59
2023-04-03T19:05:24.116Z,103257.97
2023-04-03T19:07:53.928Z,103260.56
2023-04-03T19:10:23.765Z,103262.28
2023-04-03T19:12:56.413Z,103263.06
2023-04-03T19:15:28.056Z,103262.91
2023-04-03T19:17:57.952Z,103268.00
2023-04-03T19:20:27.975Z,103266.03
2023-04-03T19:22:58.024Z,103268.31
2023-04-03T19:25:27.797Z,103256.34
2023-04-03T19:28:01.064Z,103254.78
2023-04-03T19:30:32.056Z,103254.78
2023-04-03T19:33:02.045Z,103251.13
2023-04-03T19:35:32.078Z,103250.06
2023-04-03T19:38:01.873Z,103245.63
2023-04-03T19:40:32.820Z,103246.69
2023-04-03T19:43:05.417Z,103242.66
2023-04-03T19:45:35.269Z,103234.19
2023-04-03T19:48:06.079Z,103249.09
2023-04-03T19:50:36.122Z,103246.06
2023-04-03T19:53:06.101Z,103238.97
2023-04-03T19:55:36.568Z,103235.81
2023-04-03T19:58:09.169Z,103243.03
2023-04-03T20:00:39.174Z,103246.16
2023-04-03T20:03:13.083Z,103245.72
2023-04-03T20:05:43.043Z,103243.75
2023-04-03T20:08:12.866Z,103231.50
2023-04-03T20:10:43.132Z,103237.34
2023-04-03T20:13:15.555Z,103228.56
2023-04-03T20:15:46.112Z,103232.88
2023-04-03T20:18:21.985Z,103235.63
2023-04-03T20:20:56.212Z,103233.94
2023-04-03T20:23:27.407Z,103235.75
2023-04-03T20:26:09.488Z,103231.50
2023-04-03T20:28:45.079Z,103230.69
2023-04-03T20:31:14.963Z,103226.41
2023-04-03T20:33:45.099Z,103213.34
2023-04-03T20:36:15.873Z,103221.34
2023-04-03T20:38:45.750Z,103214.44
2023-04-03T20:41:17.928Z,103210.28
2023-04-03T20:43:50.819Z,103201.66
2023-04-03T20:46:21.215Z,103199.84
2023-04-03T20:48:51.516Z,103190.94
2023-04-03T20:51:22.870Z,103197.97
2023-04-03T20:53:55.649Z,103200.59
2023-04-03T20:56:25.487Z,103190.94
2023-04-03T20:58:58.705Z,103193.72
2023-04-03T21:01:28.640Z,103196.44
2023-04-03T21:04:12.325Z,103196.59
2023-04-03T21:07:15.335Z,103197.50
2023-04-03T21:10:15.116Z,103189.97
2023-04-03T21:13:14.890Z,103197.94
2023-04-03T21:15:52.437Z,103197.31
2023-04-03T21:19:05.238Z,103193.91
2023-04-03T21:21:37.965Z,103187.94
2023-04-03T21:24:10.917Z,103185.34
2023-04-03T21:26:42.154Z,103182.72
2023-04-03T21:29:13.585Z,103185.47
2023-04-03T21:31:56.962Z,103187.31
2023-04-03T21:34:31.289Z,103188.06
2023-04-03T21:37:05.747Z,103197.31
2023-04-03T21:39:36.452Z,103192.44
2023-04-03T21:42:07.621Z,103195.69
2023-04-03T21:44:37.619Z,103201.66
2023-04-03T21:47:07.859Z,103198.31
2023-04-03T21:49:41.008Z,103205.63
2023-04-03T21:52:10.852Z,103208.50
2023-04-03T21:54:40.608Z,103205.25
2023-04-03T21:57:11.889Z,103203.59
2023-04-03T21:59:42.191Z,103199.41
2023-04-03T22:02:16.347Z,103200.34
2023-04-03T22:04:50.354Z,103197.88
2023-04-03T22:07:20.126Z,103191.00
2023-04-03T22:09:49.914Z,103191.91
2023-04-03T22:12:19.752Z,103188.38
2023-04-03T22:14:49.698Z,103191.09
2023-04-03T22:17:19.705Z,103184.06
2023-04-03T22:19:52.125Z,103186.69
2023-04-03T22:22:21.910Z,103191.91
2023-04-03T22:24:53.275Z,103189.28
2023-04-03T22:27:23.165Z,103184.81
2023-04-03T22:29:52.965Z,103177.00
2023-04-03T22:32:22.804Z,103176.25
2023-04-03T22:34:55.209Z,103171.78
2023-04-03T22:37:25.080Z,103168.09
2023-04-03T22:39:54.911Z,103165.38
2023-04-03T22:42:24.703Z,103173.94
2023-04-03T22:44:54.510Z,103168.47
2023-04-03T22:47:24.325Z,103170.94
2023-04-03T22:49:57.581Z,103172.50
2023-04-03T22:52:27.383Z,103174.66
2023-04-03T22:55:01.364Z,103173.16
2023-04-03T22:57:36.214Z,103168.28
2023-04-03T23:00:06.037Z,103169.09
2023-04-03T23:02:36.378Z,103166.31
2023-04-03T23:05:10.317Z,103165.41
2023-04-03T23:07:40.085Z,103166.94
2023-04-03T23:10:11.307Z,103165.88
2023-04-03T23:12:41.508Z,103167.16
2023-04-03T23:15:12.237Z,103166.06
2023-04-03T23:17:42.519Z,103165.03
2023-04-03T23:20:15.786Z,103165.16
2023-04-03T23:22:46.574Z,103162.56
2023-04-03T23:25:19.525Z,103160.56
2023-04-03T23:27:53.775Z,103168.41
2023-04-03T23:30:24.067Z,103164.09
2023-04-03T23:32:54.002Z,103161.50
2023-04-03T23:35:26.984Z,103163.06
2023-04-03T23:37:56.779Z,103168.91
2023-04-03T23:40:26.551Z,103167.84
2023-04-03T23:42:56.414Z,103165.06
2023-04-03T23:45:27.259Z,103163.88
2023-04-03T23:48:00.274Z,103156.06
2023-04-03T23:50:32.796Z,103153.28
2023-04-03T23:53:02.663Z,103161.75
2023-04-03T23:55:32.560Z,103158.22
2023-04-03T23:58:02.339Z,103155.34
